Time;durP1;ratioP1;P1;durP2;ratioP2;P2;SDS_P1;SDS_P2;PMS_P1;PMS_P2;Temp;Humidity;BMP_temperature;BMP_pressure;BME280_temperature;BME280_humidity;BME280_pressure;Samples;Min_cycle;Max_cycle;Signal;HPM_P1;HPM_P2
2021/04/04 00:01:12;;;;;;;7.00;3.20;;;;;;;5.49;52.11;98593.72;5045500;28;20230;-83
2021/04/04 00:03:38;;;;;;;4.57;2.70;;;;;;;5.38;52.53;98591.22;5043660;28;20238;-80
2021/04/04 00:06:04;;;;;;;5.40;3.20;;;;;;;5.40;52.50;98583.47;5044977;28;20237;-82
2021/04/04 00:08:31;;;;;;;4.30;3.05;;;;;;;5.45;52.55;98591.19;5045320;28;20227;-81
2021/04/04 00:10:57;;;;;;;5.78;2.75;;;;;;;5.38;52.95;98587.78;5043426;28;20416;-82
2021/04/04 00:13:23;;;;;;;4.90;3.03;;;;;;;5.39;52.79;98592.13;5042915;28;20230;-81
2021/04/04 00:15:49;;;;;;;6.75;3.28;;;;;;;5.16;52.97;98582.84;5040913;28;20238;-83
2021/04/04 00:18:15;;;;;;;8.52;3.60;;;;;;;4.99;53.56;98589.91;5045527;28;20218;-82
2021/04/04 00:20:41;;;;;;;5.00;3.13;;;;;;;5.02;53.70;98595.91;5043623;28;20930;-79
2021/04/04 00:23:07;;;;;;;5.30;3.13;;;;;;;5.08;53.80;98589.81;5041559;28;20366;-80
2021/04/04 00:25:34;;;;;;;4.25;2.80;;;;;;;5.03;54.22;98583.84;5041073;28;20242;-81
2021/04/04 00:28:00;;;;;;;5.18;3.30;;;;;;;4.95;54.17;98593.41;5041117;28;20279;-82
2021/04/04 00:30:27;;;;;;;6.93;3.30;;;;;;;4.93;54.46;98589.97;5042330;28;20246;-80
2021/04/04 00:32:53;;;;;;;4.97;3.05;;;;;;;4.97;54.96;98586.47;5043626;28;20214;-81
2021/04/04 00:35:21;;;;;;;4.90;2.97;;;;;;;5.05;54.22;98579.50;5044150;28;20242;-80
2021/04/04 00:37:48;;;;;;;6.10;3.00;;;;;;;5.05;53.82;98573.47;5044224;28;20226;-81
2021/04/04 00:40:15;;;;;;;6.40;3.30;;;;;;;4.82;54.26;98579.72;5043924;28;20222;-81
2021/04/04 00:42:42;;;;;;;6.72;2.92;;;;;;;4.86;54.31;98583.16;5042942;28;20225;-82
2021/04/04 00:45:11;;;;;;;6.10;2.90;;;;;;;4.93;54.60;98579.63;5042583;28;20245;-80
2021/04/04 00:47:37;;;;;;;4.28;3.28;;;;;;;4.93;54.92;98569.28;5043684;28;20303;-80
2021/04/04 00:50:06;;;;;;;4.93;2.63;;;;;;;4.83;54.68;98563.31;5044874;28;20206;-82
2021/04/04 00:52:32;;;;;;;4.72;2.80;;;;;;;4.69;54.86;98565.16;5046890;28;20257;-79
2021/04/04 00:54:58;;;;;;;4.32;2.88;;;;;;;4.69;55.49;98576.38;5041421;28;20237;-82
2021/04/04 00:57:25;;;;;;;5.00;3.35;;;;;;;4.54;55.41;98566.16;5045237;28;20234;-82
2021/04/04 00:59:52;;;;;;;8.00;3.67;;;;;;;4.32;55.50;98561.16;5044698;28;20710;-82
2021/04/04 01:02:18;;;;;;;8.13;3.67;;;;;;;4.30;55.79;98564.59;5037245;28;20706;-81
2021/04/04 01:04:47;;;;;;;7.00;3.50;;;;;;;4.43;56.03;98563.69;5039688;28;20771;-82
2021/04/04 01:07:13;;;;;;;6.40;3.53;;;;;;;4.44;56.21;98573.97;5040914;28;20233;-80
2021/04/04 01:09:39;;;;;;;6.53;3.77;;;;;;;4.46;56.02;98565.38;5041900;28;20744;-82
2021/04/04 01:12:11;;;;;;;6.47;3.13;;;;;;;4.54;56.59;98566.16;5043905;28;20245;-80
2021/04/04 01:14:43;;;;;;;5.18;3.20;;;;;;;4.68;56.43;98573.81;5041877;28;20287;-80
2021/04/04 01:17:11;;;;;;;6.32;2.92;;;;;;;4.81;56.27;98576.25;5043370;28;20231;-82
2021/04/04 01:19:46;;;;;;;6.15;3.30;;;;;;;4.93;55.92;98574.47;5043616;28;20218;-83
2021/04/04 01:22:23;;;;;;;6.82;3.33;;;;;;;5.00;55.49;98576.13;5041990;28;20342;-82
2021/04/04 01:24:56;;;;;;;5.38;2.83;;;;;;;5.07;55.42;98572.56;5042520;28;20279;-82
2021/04/04 01:27:27;;;;;;;6.07;3.30;;;;;;;5.08;55.51;98576.91;5043492;28;20238;-82
2021/04/04 01:29:54;;;;;;;6.78;3.22;;;;;;;5.11;54.98;98578.59;5041991;28;20226;-82
2021/04/04 01:32:21;;;;;;;6.60;3.20;;;;;;;5.07;55.16;98577.75;5042196;28;20234;-82
2021/04/04 01:34:48;;;;;;;7.97;3.17;;;;;;;5.11;55.11;98576.00;5044080;28;20293;-82
2021/04/04 01:37:14;;;;;;;6.38;3.08;;;;;;;5.19;54.69;98566.44;5043618;28;20241;-81
2021/04/04 01:39:42;;;;;;;4.15;2.80;;;;;;;5.05;54.68;98569.16;5041937;28;20746;-82
2021/04/04 01:42:09;;;;;;;5.75;3.35;;;;;;;4.88;55.13;98563.31;5042318;28;20273;-81
2021/04/04 01:44:37;;;;;;;7.13;3.25;;;;;;;4.86;55.55;98565.91;5040461;28;20673;-82
2021/04/04 01:47:04;;;;;;;5.57;3.22;;;;;;;4.93;55.53;98564.13;5039449;28;20238;-82
2021/04/04 01:49:31;;;;;;;5.75;3.10;;;;;;;4.96;55.22;98564.06;5044024;28;20217;-81
2021/04/04 01:51:59;;;;;;;5.50;3.10;;;;;;;4.96;55.12;98556.31;5041369;28;20236;-81
2021/04/04 01:54:26;;;;;;;4.35;2.65;;;;;;;5.02;55.40;98553.69;5044299;28;20769;-81
2021/04/04 01:56:53;;;;;;;5.68;2.70;;;;;;;5.05;55.56;98553.66;5042809;28;20230;-81
2021/04/04 01:59:21;;;;;;;5.95;3.17;;;;;;;4.98;55.46;98558.03;5043255;28;20733;-81
2021/04/04 02:01:48;;;;;;;4.47;3.03;;;;;;;4.83;55.66;98551.28;5042725;28;20230;-81
2021/04/04 02:04:15;;;;;;;6.65;3.20;;;;;;;4.82;56.35;98552.13;5041586;28;20284;-81
2021/04/04 02:06:43;;;;;;;4.25;2.75;;;;;;;4.83;56.58;98547.81;5041184;28;20233;-80
2021/04/04 02:09:10;;;;;;;7.93;3.42;;;;;;;4.83;56.11;98548.69;5040523;28;20210;-82
2021/04/04 02:11:38;;;;;;;7.35;3.22;;;;;;;4.79;56.01;98552.16;5042890;28;20245;-82
2021/04/04 02:14:07;;;;;;;4.60;3.05;;;;;;;4.83;56.42;98553.88;5041480;28;20269;-82
2021/04/04 02:16:33;;;;;;;6.70;3.33;;;;;;;4.90;56.56;98556.38;5041662;28;20242;-81
2021/04/04 02:19:00;;;;;;;6.07;3.30;;;;;;;4.86;56.23;98547.81;5044491;28;20210;-81
2021/04/04 02:21:28;;;;;;;5.28;3.40;;;;;;;4.89;56.73;98554.66;5043115;28;20233;-81
2021/04/04 02:23:54;;;;;;;5.93;2.92;;;;;;;4.96;56.39;98558.91;5039081;28;20585;-82
2021/04/04 02:26:21;;;;;;;7.00;3.05;;;;;;;4.95;55.89;98554.63;5041575;28;20233;-80
2021/04/04 02:28:50;;;;;;;8.95;3.08;;;;;;;4.96;56.43;98559.78;5039241;28;20229;-81
2021/04/04 02:31:16;;;;;;;4.53;2.88;;;;;;;5.03;55.81;98555.38;5041010;28;20240;-81
2021/04/04 02:33:48;;;;;;;5.68;3.20;;;;;;;5.08;55.69;98558.78;5040956;28;20713;-80
2021/04/04 02:36:14;;;;;;;5.30;3.15;;;;;;;5.10;55.54;98557.03;5044049;28;20238;-82
2021/04/04 02:38:43;;;;;;;6.38;3.42;;;;;;;5.15;55.71;98560.44;5044510;28;20212;-81
2021/04/04 02:41:10;;;;;;;7.35;3.25;;;;;;;5.11;55.72;98553.59;5044026;28;20230;-80
2021/04/04 02:43:38;;;;;;;5.13;3.78;;;;;;;5.06;55.39;98563.13;5040364;28;20238;-82
2021/04/04 02:46:07;;;;;;;4.90;3.13;;;;;;;5.07;55.89;98561.38;5038337;28;20230;-80
2021/04/04 02:48:35;;;;;;;8.48;3.97;;;;;;;5.11;55.60;98557.91;5040478;28;20248;-81
2021/04/04 02:51:05;;;;;;;4.45;3.00;;;;;;;5.12;55.86;98555.28;5042308;28;20237;-81
2021/04/04 02:53:34;;;;;;;5.80;3.30;;;;;;;5.14;55.20;98556.13;5042823;28;20861;-82
2021/04/04 02:56:01;;;;;;;4.47;2.83;;;;;;;5.14;55.59;98556.13;5045020;28;20237;-82
2021/04/04 02:58:28;;;;;;;5.38;3.30;;;;;;;5.15;55.42;98551.84;5049402;28;20268;-82
2021/04/04 03:00:57;;;;;;;6.80;3.35;;;;;;;5.10;55.24;98557.03;5042858;28;20288;-80
2021/04/04 03:03:26;;;;;;;4.78;3.33;;;;;;;4.93;55.41;98543.44;5043922;28;20359;-82
2021/04/04 03:05:52;;;;;;;6.22;3.72;;;;;;;4.71;55.34;98548.78;5041749;28;20238;-82
2021/04/04 03:08:20;;;;;;;5.70;3.40;;;;;;;4.69;56.09;98553.13;5045675;28;20234;-82
2021/04/04 03:10:50;;;;;;;4.82;3.33;;;;;;;4.64;55.96;98557.47;5045215;28;20242;-81
2021/04/04 03:13:18;;;;;;;5.63;3.00;;;;;;;4.55;56.51;98555.81;5043947;28;20276;-82
2021/04/04 03:15:44;;;;;;;5.35;3.33;;;;;;;4.48;56.30;98542.97;5044449;28;20254;-80
2021/04/04 03:19:30;;;;;;;5.30;3.10;;;;;;;4.37;56.50;98554.22;5109006;27;20507;-81
2021/04/04 03:21:56;;;;;;;8.05;3.38;;;;;;;4.33;56.70;98552.53;5090411;27;20308;-81
2021/04/04 03:24:24;;;;;;;6.35;3.15;;;;;;;4.35;57.19;98548.22;5087670;28;20225;-81
2021/04/04 03:26:50;;;;;;;5.70;3.13;;;;;;;4.32;56.84;98545.66;5085409;28;20628;-83
2021/04/04 03:29:17;;;;;;;6.43;3.37;;;;;;;4.16;57.13;98549.22;5088280;28;20205;-83
2021/04/04 03:31:43;;;;;;;6.05;3.90;;;;;;;4.16;57.29;98550.06;5087615;28;20240;-81
2021/04/04 03:34:09;;;;;;;3.97;3.00;;;;;;;4.25;56.97;98546.56;5087435;28;20273;-82
2021/04/04 03:36:36;;;;;;;5.78;3.35;;;;;;;4.25;57.17;98544.84;5088540;28;20224;-83
2021/04/04 03:39:04;;;;;;;6.28;3.45;;;;;;;4.19;57.25;98544.00;5086201;28;20231;-80
2021/04/04 03:43:05;;;;;;;4.93;3.28;;;;;;;4.15;57.04;98543.19;5104376;27;20537;-81
2021/04/04 03:45:31;;;;;;;6.43;3.42;;;;;;;4.20;57.13;98543.16;5072771;28;20241;-83
2021/04/04 03:47:58;;;;;;;6.05;3.40;;;;;;;4.18;57.20;98553.50;5048640;28;20571;-83
2021/04/04 03:50:24;;;;;;;5.13;2.90;;;;;;;4.21;57.09;98548.31;5044681;28;20210;-83
2021/04/04 03:52:51;;;;;;;5.57;3.10;;;;;;;4.27;57.33;98546.56;5044455;28;20207;-81
2021/04/04 03:55:21;;;;;;;5.07;3.58;;;;;;;4.31;56.88;98543.94;5045197;28;20587;-83
2021/04/04 03:57:48;;;;;;;6.80;2.97;;;;;;;4.22;56.91;98549.16;5041491;28;20210;-82
2021/04/04 04:00:17;;;;;;;5.25;3.35;;;;;;;4.03;56.91;98549.28;5036480;28;20217;-83
2021/04/04 04:02:44;;;;;;;3.83;2.90;;;;;;;4.00;57.23;98548.44;5045115;28;20233;-81
2021/04/04 04:05:11;;;;;;;4.37;2.90;;;;;;;4.03;57.12;98540.69;5047272;28;20257;-81
2021/04/04 04:07:39;;;;;;;8.03;3.60;;;;;;;4.04;57.00;98535.53;5051593;28;20690;-82
2021/04/04 04:10:06;;;;;;;4.80;2.80;;;;;;;3.97;56.94;98544.16;5051367;28;20209;-82
2021/04/04 04:12:33;;;;;;;6.65;3.10;;;;;;;4.03;57.02;98536.38;5043187;28;20284;-83
2021/04/04 04:14:59;;;;;;;5.20;2.90;;;;;;;3.92;56.49;98535.59;5042734;28;20230;-82
2021/04/04 04:17:26;;;;;;;5.10;2.97;;;;;;;3.90;56.61;98541.59;5041797;28;20233;-82
2021/04/04 04:19:53;;;;;;;5.80;3.07;;;;;;;3.94;57.07;98538.16;5047511;28;20226;-83
2021/04/04 04:22:20;;;;;;;4.93;2.80;;;;;;;3.99;56.66;98541.59;5044673;28;20230;-82
2021/04/04 04:24:47;;;;;;;5.82;3.08;;;;;;;4.02;56.76;98542.41;5048585;28;20559;-83
2021/04/04 04:27:13;;;;;;;4.13;2.67;;;;;;;4.03;56.60;98533.78;5048074;28;20767;-83
2021/04/04 04:29:40;;;;;;;8.07;3.00;;;;;;;4.00;56.52;98543.28;5049533;28;20213;-82
2021/04/04 04:32:06;;;;;;;5.97;3.07;;;;;;;3.86;56.57;98545.97;5047370;28;20363;-82
2021/04/04 04:34:33;;;;;;;6.32;3.03;;;;;;;3.67;57.09;98540.00;5043424;28;20233;-83
2021/04/04 04:37:00;;;;;;;6.80;3.47;;;;;;;3.53;57.39;98534.94;5048105;28;20229;-83
2021/04/04 04:39:26;;;;;;;5.27;2.97;;;;;;;3.43;57.22;98534.09;5047623;28;20214;-83
2021/04/04 04:41:53;;;;;;;4.87;2.97;;;;;;;3.26;57.80;98534.16;5053405;28;20245;-82
2021/04/04 04:44:21;;;;;;;6.40;3.20;;;;;;;3.10;58.15;98545.38;5058092;28;20721;-82
2021/04/04 04:46:47;;;;;;;6.67;3.37;;;;;;;3.08;58.40;98547.09;5056761;28;20614;-81
2021/04/04 04:49:14;;;;;;;7.10;3.60;;;;;;;3.14;58.29;98539.34;5059583;28;20213;-82
2021/04/04 04:51:41;;;;;;;5.57;3.13;;;;;;;3.23;58.12;98538.47;5059029;28;20938;-82
2021/04/04 04:54:08;;;;;;;5.80;3.20;;;;;;;3.30;57.96;98534.16;5047064;28;20266;-83
2021/04/04 04:56:37;;;;;;;5.27;3.40;;;;;;;3.28;58.02;98539.31;5045557;28;20245;-82
2021/04/04 04:59:04;;;;;;;5.15;3.30;;;;;;;3.30;58.00;98537.56;5045298;28;20667;-82
2021/04/04 05:01:36;;;;;;;5.33;3.40;;;;;;;3.38;58.03;98537.53;5038364;28;20249;-81
2021/04/04 05:06:17;;;;;;;6.17;3.43;;;;;;;3.51;57.69;98540.94;5079865;27;741161;-82
2021/04/04 05:08:44;;;;;;;6.17;3.13;;;;;;;3.45;57.59;98537.50;5047926;28;20248;-82
2021/04/04 05:11:13;;;;;;;5.73;3.00;;;;;;;3.33;57.74;98544.44;5051202;28;20240;-83
2021/04/04 05:16:10;;;;;;;4.73;2.70;;;;;;;3.34;58.11;98533.28;5097852;27;20895;-80
2021/04/04 05:18:37;;;;;;;5.03;2.90;;;;;;;3.35;57.82;98538.44;5077181;28;20229;-79
2021/04/04 05:21:03;;;;;;;5.07;3.17;;;;;;;3.40;58.10;98548.72;5080927;28;20248;-80
2021/04/04 05:23:30;;;;;;;5.37;3.40;;;;;;;3.44;58.11;98538.41;5078085;28;20236;-81
2021/04/04 05:25:56;;;;;;;5.50;3.07;;;;;;;3.50;57.91;98547.81;5073604;28;20229;-79
2021/04/04 05:28:22;;;;;;;8.10;3.20;;;;;;;3.48;57.98;98549.56;5076907;28;20240;-81
2021/04/04 05:30:48;;;;;;;5.50;3.23;;;;;;;3.49;58.10;98543.50;5077264;28;20234;-78
2021/04/04 05:33:15;;;;;;;4.50;2.90;;;;;;;3.54;58.01;98549.53;5078248;28;20214;-78
2021/04/04 05:35:42;;;;;;;3.92;3.15;;;;;;;3.56;58.05;98547.78;5078401;28;20232;-79
2021/04/04 05:38:10;;;;;;;6.23;3.00;;;;;;;3.58;57.96;98551.22;5080206;28;20286;-81
2021/04/04 05:40:36;;;;;;;6.67;3.20;;;;;;;3.58;57.98;98545.22;5074001;28;20247;-79
2021/04/04 05:43:06;;;;;;;7.93;3.35;;;;;;;3.59;58.05;98557.25;5083664;28;20213;-81
2021/04/04 05:45:36;;;;;;;3.93;2.93;;;;;;;3.59;58.27;98547.78;5075443;28;20349;-81
2021/04/04 05:48:16;;;;;;;5.50;3.03;;;;;;;3.55;58.25;98548.66;5079099;28;20213;-79
2021/04/04 05:50:52;;;;;;;7.17;3.57;;;;;;;3.49;58.31;98551.25;5076757;28;20237;-81
2021/04/04 05:53:23;;;;;;;6.30;3.67;;;;;;;3.50;58.44;98542.66;5078139;28;20217;-80
2021/04/04 05:55:53;;;;;;;5.75;3.58;;;;;;;3.45;58.73;98545.25;5074703;28;20708;-81
2021/04/04 05:58:23;;;;;;;5.73;3.63;;;;;;;3.51;58.63;98548.69;5077979;28;20211;-81
2021/04/04 06:00:53;;;;;;;6.13;3.87;;;;;;;3.61;58.58;98540.91;5077998;28;20227;-80
2021/04/04 06:03:53;;;;;;;5.80;3.83;;;;;;;3.66;58.49;98549.47;5078117;28;20694;-79
2021/04/04 06:06:40;;;;;;;5.40;3.77;;;;;;;3.60;58.77;98543.47;5073080;28;21019;-80
2021/04/04 06:09:19;;;;;;;5.57;3.65;;;;;;;3.57;58.51;98544.38;5074739;28;20284;-81
2021/04/04 06:12:01;;;;;;;6.20;3.50;;;;;;;3.59;58.46;98537.47;5078169;28;20317;-80
2021/04/04 06:14:31;;;;;;;6.33;3.53;;;;;;;3.57;58.59;98534.03;5077147;28;20237;-80
2021/04/04 06:17:01;;;;;;;6.47;3.60;;;;;;;3.64;58.57;98530.56;5079160;28;20235;-80
2021/04/04 06:19:40;;;;;;;6.57;4.05;;;;;;;3.84;58.81;98527.00;5078998;28;20221;-80
2021/04/04 06:22:10;;;;;;;6.75;3.90;;;;;;;3.88;58.63;98523.56;5075336;28;20728;-79
2021/04/04 06:24:43;;;;;;;8.47;4.30;;;;;;;3.84;58.42;98527.00;5080442;28;20236;-79
2021/04/04 06:27:16;;;;;;;6.83;4.27;;;;;;;3.86;58.83;98527.91;5071448;28;20238;-81
2021/04/04 06:30:04;;;;;;;7.23;4.00;;;;;;;3.86;59.02;98535.63;5064612;28;20220;-80
2021/04/04 06:32:36;;;;;;;5.77;3.87;;;;;;;3.94;58.71;98533.84;5062359;28;20233;-80
2021/04/04 06:35:05;;;;;;;5.73;4.10;;;;;;;4.07;59.20;98531.22;5062564;28;20237;-80
2021/04/04 06:37:34;;;;;;;8.60;4.93;;;;;;;4.12;58.77;98538.06;5064606;28;20231;-81
2021/04/04 06:40:04;;;;;;;9.15;4.78;;;;;;;4.14;58.90;98541.47;5063441;28;20217;-81
2021/04/04 06:43:01;;;;;;;8.10;6.27;;;;;;;4.14;59.28;98538.91;5063208;28;20270;-80
2021/04/04 06:45:34;;;;;;;9.32;5.65;;;;;;;4.21;58.93;98539.72;5060869;28;20241;-79
2021/04/04 06:48:05;;;;;;;9.68;5.50;;;;;;;4.26;59.17;98537.94;5064334;28;20217;-81
2021/04/04 06:50:38;;;;;;;10.20;5.50;;;;;;;4.30;59.06;98546.53;5064848;28;20233;-80
2021/04/04 06:53:13;;;;;;;13.17;7.07;;;;;;;4.30;59.03;98547.41;5068803;28;20263;-80
2021/04/04 06:55:49;;;;;;;11.45;6.78;;;;;;;4.36;58.89;98549.09;5065970;28;20241;-81
2021/04/04 06:58:19;;;;;;;11.32;5.88;;;;;;;4.48;58.91;98550.72;5061088;28;20215;-79
2021/04/04 07:00:54;;;;;;;13.00;6.65;;;;;;;4.56;58.66;98556.69;5063195;28;20324;-80
2021/04/04 07:03:21;;;;;;;11.55;6.18;;;;;;;4.58;58.33;98554.94;5060743;28;20258;-81
2021/04/04 07:05:51;;;;;;;11.80;6.47;;;;;;;4.66;58.78;98539.38;5063922;28;20298;-80
2021/04/04 07:08:35;;;;;;;11.70;5.75;;;;;;;4.74;58.33;98553.06;5068086;28;20213;-81
2021/04/04 07:11:05;;;;;;;14.03;6.47;;;;;;;4.83;57.97;98559.03;5063592;28;20242;-80
2021/04/04 07:13:39;;;;;;;16.20;6.93;;;;;;;4.93;57.62;98546.03;5063791;28;20233;-81
2021/04/04 07:16:15;;;;;;;14.55;5.80;;;;;;;5.11;57.24;98548.44;5060563;28;20264;-80
2021/04/04 07:19:17;;;;;;;16.15;6.95;;;;;;;5.27;56.95;98548.25;5062244;28;20212;-80
2021/04/04 07:21:56;;;;;;;19.13;7.13;;;;;;;5.36;56.83;98551.59;5062419;28;20233;-82
2021/04/04 07:24:31;;;;;;;14.55;6.28;;;;;;;5.49;56.83;98557.47;5065852;28;20334;-80
2021/04/04 07:27:04;;;;;;;15.13;6.25;;;;;;;5.63;56.15;98554.75;5066172;28;20236;-80
2021/04/04 07:29:40;;;;;;;11.05;5.60;;;;;;;5.73;55.77;98558.91;5065853;28;20217;-81
2021/04/04 07:32:10;;;;;;;15.02;6.30;;;;;;;5.81;55.49;98551.06;5057227;28;20297;-79
2021/04/04 07:34:43;;;;;;;19.02;7.55;;;;;;;5.90;55.40;98550.06;5061303;28;20768;-79
2021/04/04 07:37:21;;;;;;;17.65;7.05;;;;;;;5.99;55.68;98544.81;5060633;28;20236;-81
2021/04/04 07:39:53;;;;;;;16.80;6.00;;;;;;;6.09;55.61;98542.97;5060725;28;20212;-81
2021/04/04 07:42:24;;;;;;;16.88;6.47;;;;;;;6.12;55.51;98548.06;5062393;28;20236;-81
2021/04/04 07:44:55;;;;;;;23.05;7.32;;;;;;;6.20;55.76;98546.25;5061297;28;20225;-81
2021/04/04 07:47:25;;;;;;;23.42;7.05;;;;;;;6.28;54.97;98549.56;5058904;28;20242;-80
2021/04/04 07:49:54;;;;;;;16.63;5.97;;;;;;;6.30;54.90;98545.22;5058838;28;20276;-84
2021/04/04 07:52:24;;;;;;;18.83;6.38;;;;;;;6.41;54.04;98542.47;5062715;28;20239;-82
2021/04/04 07:54:56;;;;;;;17.20;6.68;;;;;;;6.50;54.07;98547.50;5063574;28;20243;-83
2021/04/04 07:57:28;;;;;;;21.48;6.63;;;;;;;6.61;53.82;98549.94;5062010;28;20237;-84
2021/04/04 07:59:58;;;;;;;22.88;7.03;;;;;;;6.72;53.60;98553.19;5063593;28;20209;-83
2021/04/04 08:02:29;;;;;;;15.60;5.68;;;;;;;6.87;53.33;98544.28;5059069;28;20264;-84
2021/04/04 08:05:01;;;;;;;20.83;6.63;;;;;;;7.04;52.65;98544.03;5062374;28;20657;-83
2021/04/04 08:07:32;;;;;;;19.38;5.72;;;;;;;7.16;52.39;98537.75;5061512;28;20248;-83
2021/04/04 08:10:04;;;;;;;18.52;6.38;;;;;;;7.28;51.90;98544.47;5064229;28;20217;-82
2021/04/04 08:12:35;;;;;;;17.25;5.38;;;;;;;7.38;51.49;98542.53;5063771;28;20741;-81
2021/04/04 08:15:04;;;;;;;19.90;5.53;;;;;;;7.46;51.47;98540.63;5058160;28;20238;-84
2021/04/04 08:17:30;;;;;;;21.02;5.82;;;;;;;7.49;50.53;98538.81;5058931;28;20232;-84
2021/04/04 08:20:00;;;;;;;18.73;5.47;;;;;;;7.57;50.90;98537.81;5067737;28;20254;-84
2021/04/04 08:22:30;;;;;;;15.23;4.25;;;;;;;7.66;49.65;98535.03;5061320;28;20238;-84
2021/04/04 08:25:02;;;;;;;20.13;5.25;;;;;;;7.71;49.41;98535.81;5058257;28;20232;-84
2021/04/04 08:27:33;;;;;;;18.15;4.65;;;;;;;7.81;49.27;98536.44;5059329;28;20233;-84
2021/04/04 08:30:03;;;;;;;22.17;5.03;;;;;;;7.95;49.23;98529.22;5058409;28;20300;-83
2021/04/04 08:32:36;;;;;;;18.85;4.93;;;;;;;8.11;49.33;98524.56;5060715;28;20307;-84
2021/04/04 08:35:02;;;;;;;21.33;5.00;;;;;;;8.29;48.53;98525.88;5064463;28;20238;-84
2021/04/04 08:37:32;;;;;;;20.60;5.30;;;;;;;8.36;47.79;98518.78;5059752;28;20245;-84
2021/04/04 08:40:02;;;;;;;21.98;5.43;;;;;;;8.45;47.99;98528.97;5060086;28;20494;-85
2021/04/04 08:42:28;;;;;;;21.27;5.25;;;;;;;8.53;47.72;98521.88;5062532;28;20237;-83
2021/04/04 08:44:59;;;;;;;20.75;5.32;;;;;;;8.60;48.25;98526.03;5061785;28;20230;-84
2021/04/04 08:47:27;;;;;;;20.95;5.28;;;;;;;8.64;48.06;98524.22;5063054;28;20329;-85
2021/04/04 08:49:54;;;;;;;27.95;6.65;;;;;;;8.71;47.86;98514.50;5066906;28;20213;-83
2021/04/04 08:52:23;;;;;;;22.42;5.53;;;;;;;8.81;47.72;98514.22;5060950;28;20723;-85
2021/04/04 08:54:52;;;;;;;19.70;5.38;;;;;;;8.93;47.41;98507.81;5068248;28;20242;-86
2021/04/04 08:57:22;;;;;;;16.40;4.97;;;;;;;9.12;47.29;98505.63;5057627;28;20298;-82
2021/04/04 08:59:51;;;;;;;13.82;4.57;;;;;;;9.22;46.87;98508.81;5062581;28;20222;-82
2021/04/04 09:02:18;;;;;;;20.05;5.45;;;;;;;9.24;46.42;98507.91;5067591;28;20236;-86
2021/04/04 09:04:44;;;;;;;19.92;5.07;;;;;;;9.18;46.64;98509.78;5057915;28;20232;-83
2021/04/04 09:07:11;;;;;;;21.05;5.65;;;;;;;9.23;46.01;98507.94;5061891;28;20236;-83
2021/04/04 09:09:38;;;;;;;18.90;5.25;;;;;;;9.33;46.69;98504.16;5066470;28;20209;-85
2021/04/04 09:12:07;;;;;;;20.42;5.53;;;;;;;9.44;46.09;98494.28;5061433;28;20607;-82
2021/04/04 09:14:35;;;;;;;18.83;5.72;;;;;;;9.58;46.29;98488.69;5061349;28;20458;-84
2021/04/04 09:17:07;;;;;;;21.15;5.75;;;;;;;9.70;46.09;98490.06;5063231;28;20236;-83
2021/04/04 09:19:35;;;;;;;22.42;5.78;;;;;;;9.82;45.35;98491.47;5063535;28;20295;-84
2021/04/04 09:22:04;;;;;;;23.33;5.53;;;;;;;9.93;45.64;98492.00;5063178;28;20379;-84
2021/04/04 09:24:38;;;;;;;22.55;5.63;;;;;;;10.05;45.63;98490.75;5060084;28;20237;-86
2021/04/04 09:27:06;;;;;;;18.80;5.30;;;;;;;10.16;45.31;98480.88;5060436;28;20265;-81
2021/04/04 09:29:35;;;;;;;20.08;5.70;;;;;;;10.15;44.21;98473.94;5060272;28;20210;-82
2021/04/04 09:32:03;;;;;;;15.65;4.82;;;;;;;10.25;44.45;98478.88;5059187;28;20241;-81
2021/04/04 09:34:29;;;;;;;18.35;5.50;;;;;;;10.42;44.46;98479.19;5063132;28;20356;-80
2021/04/04 09:36:56;;;;;;;18.15;5.22;;;;;;;10.55;44.19;98483.13;5063112;28;20240;-82
2021/04/04 09:39:25;;;;;;;18.98;6.30;;;;;;;10.67;43.30;98483.63;5061305;28;20221;-80
2021/04/04 09:41:52;;;;;;;18.60;5.10;;;;;;;10.60;42.08;98476.00;5064770;28;20250;-82
2021/04/04 09:44:28;;;;;;;16.88;5.25;;;;;;;10.50;40.79;98478.97;5060614;28;20249;-82
2021/04/04 09:46:56;;;;;;;15.90;4.75;;;;;;;10.38;41.33;98469.78;5060697;28;20235;-81
2021/04/04 09:49:37;;;;;;;17.80;5.35;;;;;;;10.35;41.74;98470.72;5060845;28;20228;-80
2021/04/04 09:52:17;;;;;;;16.98;4.97;;;;;;;10.35;41.78;98469.88;5064943;28;20243;-82
2021/04/04 09:55:02;;;;;;;15.23;4.97;;;;;;;10.34;41.86;98473.38;5059408;28;20237;-81
2021/04/04 09:57:29;;;;;;;17.42;5.07;;;;;;;10.49;42.65;98469.41;5056452;28;20218;-80
2021/04/04 09:59:56;;;;;;;15.68;4.80;;;;;;;10.43;41.19;98459.19;5062160;28;20278;-82
2021/04/04 10:02:32;;;;;;;13.30;4.18;;;;;;;10.50;41.50;98463.31;5063030;28;20302;-83
2021/04/04 10:04:58;;;;;;;17.15;4.57;;;;;;;10.66;41.22;98458.41;5066494;28;20224;-82
2021/04/04 10:07:28;;;;;;;16.70;5.05;;;;;;;10.88;40.41;98448.09;5067251;28;20232;-82
2021/04/04 10:09:54;;;;;;;14.30;4.28;;;;;;;11.08;40.41;98456.09;5064920;28;20220;-80
2021/04/04 10:12:20;;;;;;;16.02;5.00;;;;;;;11.19;40.43;98450.47;5062969;28;20253;-81
2021/04/04 10:15:04;;;;;;;13.13;4.72;;;;;;;11.33;40.18;98450.81;5067454;28;20241;-83
2021/04/04 10:17:30;;;;;;;16.00;4.97;;;;;;;11.27;39.77;98445.81;5066701;28;21130;-82
2021/04/04 10:19:58;;;;;;;19.13;5.18;;;;;;;11.13;39.47;98455.91;5064133;28;20694;-80
2021/04/04 10:22:24;;;;;;;14.07;4.85;;;;;;;10.93;39.35;98447.03;5058501;28;20297;-81
2021/04/04 10:24:51;;;;;;;18.35;5.35;;;;;;;10.93;39.63;98440.97;5061384;28;20769;-80
2021/04/04 10:27:19;;;;;;;16.65;4.90;;;;;;;10.89;39.61;98432.38;5060957;28;20329;-81
2021/04/04 10:29:46;;;;;;;14.88;4.80;;;;;;;10.90;39.48;98436.72;5064125;28;20214;-81
2021/04/04 10:32:14;;;;;;;19.73;6.18;;;;;;;10.98;39.02;98428.59;5065027;28;20240;-80
2021/04/04 10:34:43;;;;;;;12.52;4.22;;;;;;;11.03;38.57;98434.50;5062931;28;20241;-83
2021/04/04 10:37:10;;;;;;;20.65;6.07;;;;;;;11.09;39.29;98425.59;5064848;28;20262;-81
2021/04/04 10:39:37;;;;;;;16.83;5.85;;;;;;;11.20;38.72;98423.44;5064754;28;20228;-80
2021/04/04 10:42:12;;;;;;;19.38;5.40;;;;;;;11.52;38.25;98426.59;5064711;28;20588;-81
2021/04/04 10:44:38;;;;;;;19.45;5.80;;;;;;;11.75;38.37;98421.34;5064514;28;20663;-83
2021/04/04 10:47:19;;;;;;;19.35;5.53;;;;;;;11.94;38.45;98426.72;5064787;28;20271;-80
2021/04/04 10:49:45;;;;;;;15.88;4.68;;;;;;;11.89;38.11;98412.13;5064486;28;20220;-81
2021/04/04 10:52:11;;;;;;;19.30;5.65;;;;;;;11.60;37.53;98416.72;5061450;28;20230;-81
2021/04/04 10:54:37;;;;;;;18.30;5.85;;;;;;;11.40;37.82;98419.25;5065389;28;20241;-80
2021/04/04 10:57:05;;;;;;;17.10;5.47;;;;;;;11.29;38.84;98406.59;5066297;28;20246;-82
2021/04/04 10:59:31;;;;;;;19.50;5.88;;;;;;;11.25;38.78;98408.47;5059499;28;20232;-82
2021/04/04 11:01:57;;;;;;;18.17;5.82;;;;;;;11.11;38.62;98403.75;5066024;28;20234;-81
2021/04/04 11:04:24;;;;;;;21.30;6.40;;;;;;;11.07;38.12;98398.72;5067015;28;20236;-81
2021/04/04 11:06:51;;;;;;;17.00;5.88;;;;;;;11.14;38.54;98401.03;5065538;28;20238;-82
2021/04/04 11:09:17;;;;;;;16.83;5.38;;;;;;;11.35;39.46;98394.13;5064772;28;20229;-82
2021/04/04 11:11:43;;;;;;;17.45;5.18;;;;;;;11.69;38.85;98395.47;5066267;28;20267;-82
2021/04/04 11:14:11;;;;;;;17.10;5.57;;;;;;;11.89;38.26;98381.63;5062115;28;20308;-81
2021/04/04 11:16:37;;;;;;;18.83;5.38;;;;;;;12.06;38.08;98393.19;5065084;28;20245;-80
2021/04/04 11:19:07;;;;;;;18.80;5.50;;;;;;;12.10;37.51;98386.91;5060608;28;20269;-81
2021/04/04 11:21:38;;;;;;;15.65;5.18;;;;;;;11.90;37.18;98387.72;5057507;28;20231;-82
2021/04/04 11:24:05;;;;;;;17.38;5.03;;;;;;;11.76;37.88;98381.25;5065344;28;20269;-82
2021/04/04 11:26:36;;;;;;;22.52;8.88;;;;;;;11.57;37.62;98375.88;5061750;28;20228;-80
2021/04/04 11:29:12;;;;;;;22.50;7.43;;;;;;;11.70;38.27;98380.63;5063694;28;20584;-79
2021/04/04 11:31:40;;;;;;;17.42;5.18;;;;;;;12.14;37.95;98381.47;5064606;28;20256;-81
2021/04/04 11:34:26;;;;;;;19.33;5.50;;;;;;;12.83;35.55;98374.22;5064658;28;20794;-80
2021/04/04 11:36:53;;;;;;;19.23;5.13;;;;;;;13.53;36.22;98370.19;5066341;28;20236;-82
2021/04/04 11:39:19;;;;;;;19.23;5.93;;;;;;;14.12;34.86;98362.16;5067630;28;20227;-81
2021/04/04 11:41:48;;;;;;;29.83;7.63;;;;;;;14.58;35.19;98359.84;5063847;28;20229;-81
2021/04/04 11:44:20;;;;;;;19.65;5.55;;;;;;;14.49;34.79;98355.88;5060038;28;20236;-81
2021/04/04 11:46:49;;;;;;;15.90;5.25;;;;;;;14.23;35.47;98350.19;5061296;28;20225;-80
2021/04/04 11:49:38;;;;;;;17.25;5.45;;;;;;;14.51;35.46;98359.28;5065418;28;20307;-82
2021/04/04 11:52:46;;;;;;;18.70;5.97;;;;;;;14.89;34.77;98345.97;5059677;28;20233;-82
2021/04/04 11:55:14;;;;;;;18.50;5.70;;;;;;;15.29;33.95;98350.84;5064083;28;20253;-82